sensor_id;sensor_type;location;lat;lon;timestamp;pressure;altitude;pressure_sealevel;temperature;humidity
48848;BME280;36611;51.638;5.784;2023-07-30T00:02:16;100858.34;;;27.75;45.81
48848;BME280;36611;51.638;5.784;2023-07-30T00:04:44;100856.19;;;27.77;45.65
48848;BME280;36611;51.638;5.784;2023-07-30T00:07:11;100855.34;;;27.76;45.61
48848;BME280;36611;51.638;5.784;2023-07-30T00:09:38;100852.81;;;27.75;45.70
48848;BME280;36611;51.638;5.784;2023-07-30T00:12:06;100853.44;;;27.77;45.64
48848;BME280;36611;51.638;5.784;2023-07-30T00:14:34;100855.34;;;27.76;45.58
48848;BME280;36611;51.638;5.784;2023-07-30T00:17:01;100851.75;;;27.76;45.42
48848;BME280;36611;51.638;5.784;2023-07-30T00:19:28;100849.81;;;27.76;45.48
48848;BME280;36611;51.638;5.784;2023-07-30T00:21:55;100856.41;;;27.75;45.96
48848;BME280;36611;51.638;5.784;2023-07-30T00:24:21;100845.38;;;27.75;45.42
48848;BME280;36611;51.638;5.784;2023-07-30T00:26:48;100845.38;;;27.75;45.54
48848;BME280;36611;51.638;5.784;2023-07-30T00:29:14;100850.91;;;27.75;45.66
48848;BME280;36611;51.638;5.784;2023-07-30T00:31:41;100843.69;;;27.74;45.49
48848;BME280;36611;51.638;5.784;2023-07-30T00:34:08;100843.69;;;27.74;45.46
48848;BME280;36611;51.638;5.784;2023-07-30T00:36:35;100850.91;;;27.75;45.44
48848;BME280;36611;51.638;5.784;2023-07-30T00:39:01;100849.19;;;27.74;45.47
48848;BME280;36611;51.638;5.784;2023-07-30T00:41:29;100843.91;;;27.73;45.62
48848;BME280;36611;51.638;5.784;2023-07-30T00:43:56;100853.03;;;27.73;45.54
48848;BME280;36611;51.638;5.784;2023-07-30T00:46:22;100853.03;;;27.73;45.42
48848;BME280;36611;51.638;5.784;2023-07-30T00:48:49;100855.78;;;27.73;45.59
48848;BME280;36611;51.638;5.784;2023-07-30T00:51:17;100858.56;;;27.73;45.53
48848;BME280;36611;51.638;5.784;2023-07-30T00:53:43;100865.13;;;27.72;45.38
48848;BME280;36611;51.638;5.784;2023-07-30T00:56:11;100859.63;;;27.72;45.60
48848;BME280;36611;51.638;5.784;2023-07-30T00:58:38;100868.75;;;27.73;45.21
48848;BME280;36611;51.638;5.784;2023-07-30T01:01:04;100870.44;;;27.74;45.44
48848;BME280;36611;51.638;5.784;2023-07-30T01:03:32;100864.06;;;27.73;45.38
48848;BME280;36611;51.638;5.784;2023-07-30T01:05:58;100871.50;;;27.73;45.45
48848;BME280;36611;51.638;5.784;2023-07-30T01:08:25;100866.81;;;27.73;45.43
48848;BME280;36611;51.638;5.784;2023-07-30T01:10:53;100867.06;;;27.72;45.38
48848;BME280;36611;51.638;5.784;2023-07-30T01:13:20;100877.25;;;27.71;45.37
48848;BME280;36611;51.638;5.784;2023-07-30T01:15:47;100880.84;;;27.72;45.39
48848;BME280;36611;51.638;5.784;2023-07-30T01:18:13;100874.47;;;27.71;45.58
48848;BME280;36611;51.638;5.784;2023-07-30T01:20:40;100875.31;;;27.72;45.32
48848;BME280;36611;51.638;5.784;2023-07-30T01:23:07;100880.84;;;27.72;45.44
48848;BME280;36611;51.638;5.784;2023-07-30T01:25:36;100875.31;;;27.72;45.24
48848;BME280;36611;51.638;5.784;2023-07-30T01:28:04;100877.25;;;27.71;45.29
48848;BME280;36611;51.638;5.784;2023-07-30T01:30:42;100881.91;;;27.71;45.35
48848;BME280;36611;51.638;5.784;2023-07-30T01:33:10;100886.59;;;27.70;45.25
48848;BME280;36611;51.638;5.784;2023-07-30T01:35:38;100881.06;;;27.70;45.49
48848;BME280;36611;51.638;5.784;2023-07-30T01:38:06;100885.75;;;27.70;45.59
48848;BME280;36611;51.638;5.784;2023-07-30T01:40:32;100893.19;;;27.69;45.44
48848;BME280;36611;51.638;5.784;2023-07-30T01:42:59;100888.50;;;27.70;45.57
48848;BME280;36611;51.638;5.784;2023-07-30T01:45:26;100899.75;;;27.68;45.54
48848;BME280;36611;51.638;5.784;2023-07-30T01:47:52;100902.28;;;27.70;45.37
48848;BME280;36611;51.638;5.784;2023-07-30T01:50:19;100902.53;;;27.68;45.26
48848;BME280;36611;51.638;5.784;2023-07-30T01:52:46;100908.88;;;27.69;45.09
48848;BME280;36611;51.638;5.784;2023-07-30T01:55:12;100906.97;;;27.69;45.06
48848;BME280;36611;51.638;5.784;2023-07-30T01:57:39;100905.28;;;27.68;45.13
48848;BME280;36611;51.638;5.784;2023-07-30T02:00:06;100901.66;;;27.68;45.27
48848;BME280;36611;51.638;5.784;2023-07-30T02:02:33;100905.28;;;27.68;45.08
48848;BME280;36611;51.638;5.784;2023-07-30T02:05:02;100904.44;;;27.68;45.05
48848;BME280;36611;51.638;5.784;2023-07-30T02:07:28;100898.06;;;27.67;45.19
48848;BME280;36611;51.638;5.784;2023-07-30T02:09:56;100905.28;;;27.68;45.29
48848;BME280;36611;51.638;5.784;2023-07-30T02:12:22;100902.53;;;27.68;45.06
48848;BME280;36611;51.638;5.784;2023-07-30T02:14:49;100899.97;;;27.67;45.40
48848;BME280;36611;51.638;5.784;2023-07-30T02:17:16;100900.81;;;27.67;44.88
48848;BME280;36611;51.638;5.784;2023-07-30T02:19:42;100902.75;;;27.67;45.41
48848;BME280;36611;51.638;5.784;2023-07-30T02:22:09;100898.06;;;27.67;45.25
48848;BME280;36611;51.638;5.784;2023-07-30T02:24:35;100903.59;;;27.67;45.15
48848;BME280;36611;51.638;5.784;2023-07-30T02:27:02;100901.88;;;27.66;45.11
48848;BME280;36611;51.638;5.784;2023-07-30T02:29:29;100887.25;;;27.66;45.04
48848;BME280;36611;51.638;5.784;2023-07-30T02:31:57;100886.19;;;27.67;45.06
48848;BME280;36611;51.638;5.784;2023-07-30T02:34:26;100885.34;;;27.66;45.39
48848;BME280;36611;51.638;5.784;2023-07-30T02:36:53;100886.41;;;27.65;45.18
48848;BME280;36611;51.638;5.784;2023-07-30T02:39:19;100886.41;;;27.65;45.02
48848;BME280;36611;51.638;5.784;2023-07-30T02:41:46;100884.50;;;27.66;45.05
48848;BME280;36611;51.638;5.784;2023-07-30T02:44:14;100882.56;;;27.66;44.98
48848;BME280;36611;51.638;5.784;2023-07-30T02:46:41;100880.88;;;27.65;44.99
48848;BME280;36611;51.638;5.784;2023-07-30T02:49:07;100881.94;;;27.64;45.00
48848;BME280;36611;51.638;5.784;2023-07-30T02:51:35;100879.19;;;27.64;45.14
48848;BME280;36611;51.638;5.784;2023-07-30T02:54:07;100876.44;;;27.64;45.08
48848;BME280;36611;51.638;5.784;2023-07-30T02:56:34;100880.25;;;27.63;45.23
48848;BME280;36611;51.638;5.784;2023-07-30T02:59:01;100876.44;;;27.64;45.14
48848;BME280;36611;51.638;5.784;2023-07-30T03:01:27;100881.09;;;27.64;45.01
48848;BME280;36611;51.638;5.784;2023-07-30T03:03:54;100875.81;;;27.62;45.08
48848;BME280;36611;51.638;5.784;2023-07-30T03:06:21;100873.88;;;27.63;44.84
48848;BME280;36611;51.638;5.784;2023-07-30T03:08:47;100878.56;;;27.62;44.96
48848;BME280;36611;51.638;5.784;2023-07-30T03:11:14;100889.59;;;27.62;44.92
48848;BME280;36611;51.638;5.784;2023-07-30T03:13:40;100889.59;;;27.62;44.98
48848;BME280;36611;51.638;5.784;2023-07-30T03:16:07;100890.66;;;27.61;44.88
48848;BME280;36611;51.638;5.784;2023-07-30T03:18:34;100894.28;;;27.62;45.18
48848;BME280;36611;51.638;5.784;2023-07-30T03:21:01;100899.78;;;27.62;44.96
48848;BME280;36611;51.638;5.784;2023-07-30T03:23:28;100898.94;;;27.61;44.83
48848;BME280;36611;51.638;5.784;2023-07-30T03:25:54;100900.84;;;27.61;44.93
48848;BME280;36611;51.638;5.784;2023-07-30T03:28:21;100900.84;;;27.61;45.02
48848;BME280;36611;51.638;5.784;2023-07-30T03:30:47;100907.22;;;27.61;45.06
48848;BME280;36611;51.638;5.784;2023-07-30T03:33:14;100898.09;;;27.61;44.84
48848;BME280;36611;51.638;5.784;2023-07-30T03:35:41;100902.56;;;27.62;44.81
48848;BME280;36611;51.638;5.784;2023-07-30T03:38:08;100904.47;;;27.61;44.80
48848;BME280;36611;51.638;5.784;2023-07-30T03:40:35;100901.69;;;27.61;44.92
48848;BME280;36611;51.638;5.784;2023-07-30T03:43:02;100908.25;;;27.60;45.22
48848;BME280;36611;51.638;5.784;2023-07-30T03:45:29;100901.03;;;27.59;44.73
48848;BME280;36611;51.638;5.784;2023-07-30T03:47:56;100900.19;;;27.59;44.93
48848;BME280;36611;51.638;5.784;2023-07-30T03:50:22;100903.81;;;27.59;45.10
48848;BME280;36611;51.638;5.784;2023-07-30T03:52:49;100908.47;;;27.59;44.90
48848;BME280;36611;51.638;5.784;2023-07-30T03:55:16;100910.38;;;27.58;44.93
48848;BME280;36611;51.638;5.784;2023-07-30T03:57:42;100916.75;;;27.59;44.90
48848;BME280;36611;51.638;5.784;2023-07-30T04:00:09;100918.66;;;27.58;44.72
48848;BME280;36611;51.638;5.784;2023-07-30T04:02:45;100915.91;;;27.58;44.79
48848;BME280;36611;51.638;5.784;2023-07-30T04:05:11;100917.81;;;27.58;44.82
48848;BME280;36611;51.638;5.784;2023-07-30T04:07:38;100914.22;;;27.57;44.98
48848;BME280;36611;51.638;5.784;2023-07-30T04:10:07;100909.53;;;27.58;44.81
48848;BME280;36611;51.638;5.784;2023-07-30T04:12:33;100914.22;;;27.57;44.89
48848;BME280;36611;51.638;5.784;2023-07-30T04:15:00;100919.72;;;27.57;45.03
48848;BME280;36611;51.638;5.784;2023-07-30T04:17:27;100913.38;;;27.57;44.93
48848;BME280;36611;51.638;5.784;2023-07-30T04:19:54;100921.63;;;27.57;44.79
48848;BME280;36611;51.638;5.784;2023-07-30T04:22:21;100918.03;;;27.56;45.00
48848;BME280;36611;51.638;5.784;2023-07-30T04:24:48;100922.72;;;27.56;44.60
48848;BME280;36611;51.638;5.784;2023-07-30T04:27:14;100921.00;;;27.54;44.78
48848;BME280;36611;51.638;5.784;2023-07-30T04:29:41;100920.78;;;27.56;44.97
48848;BME280;36611;51.638;5.784;2023-07-30T04:32:07;100927.38;;;27.55;44.88
48848;BME280;36611;51.638;5.784;2023-07-30T04:34:34;100922.72;;;27.56;44.79
48848;BME280;36611;51.638;5.784;2023-07-30T04:37:01;100925.69;;;27.54;44.75
48848;BME280;36611;51.638;5.784;2023-07-30T04:39:30;100928.22;;;27.56;44.85
48848;BME280;36611;51.638;5.784;2023-07-30T04:41:58;100929.28;;;27.54;44.63
48848;BME280;36611;51.638;5.784;2023-07-30T04:44:26;100934.81;;;27.54;44.82
48848;BME280;36611;51.638;5.784;2023-07-30T04:46:55;100935.88;;;27.53;44.75
48848;BME280;36611;51.638;5.784;2023-07-30T04:49:21;100936.72;;;27.54;44.73
48848;BME280;36611;51.638;5.784;2023-07-30T04:51:48;100931.19;;;27.54;44.84
48848;BME280;36611;51.638;5.784;2023-07-30T04:54:16;100933.13;;;27.53;44.75
48848;BME280;36611;51.638;5.784;2023-07-30T04:56:42;100936.72;;;27.54;45.12
48848;BME280;36611;51.638;5.784;2023-07-30T04:59:09;100939.69;;;27.52;44.70
48848;BME280;36611;51.638;5.784;2023-07-30T05:01:36;100927.59;;;27.53;44.73
48848;BME280;36611;51.638;5.784;2023-07-30T05:04:03;100929.50;;;27.53;44.65
48848;BME280;36611;51.638;5.784;2023-07-30T05:06:30;100935.03;;;27.53;44.69
48848;BME280;36611;51.638;5.784;2023-07-30T05:08:56;100924.84;;;27.53;44.86
48848;BME280;36611;51.638;5.784;2023-07-30T05:11:23;100938.63;;;27.53;44.71
48848;BME280;36611;51.638;5.784;2023-07-30T05:13:49;100939.47;;;27.54;44.72
48848;BME280;36611;51.638;5.784;2023-07-30T05:16:16;100935.88;;;27.53;44.89
48848;BME280;36611;51.638;5.784;2023-07-30T05:18:43;100940.53;;;27.53;44.78
48848;BME280;36611;51.638;5.784;2023-07-30T05:21:11;100940.53;;;27.53;44.48
48848;BME280;36611;51.638;5.784;2023-07-30T05:23:37;100949.03;;;27.51;45.06
48848;BME280;36611;51.638;5.784;2023-07-30T05:26:04;100949.03;;;27.51;44.65
48848;BME280;36611;51.638;5.784;2023-07-30T05:28:30;100954.56;;;27.51;44.65
48848;BME280;36611;51.638;5.784;2023-07-30T05:30:57;100954.56;;;27.51;44.70
48848;BME280;36611;51.638;5.784;2023-07-30T05:33:24;100950.09;;;27.50;44.74
48848;BME280;36611;51.638;5.784;2023-07-30T05:35:50;100959.22;;;27.51;44.59
48848;BME280;36611;51.638;5.784;2023-07-30T05:38:17;100961.97;;;27.51;44.49
48848;BME280;36611;51.638;5.784;2023-07-30T05:40:44;100958.38;;;27.50;44.66
48848;BME280;36611;51.638;5.784;2023-07-30T05:43:10;100958.38;;;27.50;44.51
48848;BME280;36611;51.638;5.784;2023-07-30T05:45:37;100956.66;;;27.49;44.54
48848;BME280;36611;51.638;5.784;2023-07-30T05:48:03;100962.16;;;27.49;44.69
48848;BME280;36611;51.638;5.784;2023-07-30T05:50:30;100951.13;;;27.49;44.68
48848;BME280;36611;51.638;5.784;2023-07-30T05:52:57;100957.53;;;27.50;44.54
48848;BME280;36611;51.638;5.784;2023-07-30T05:55:23;100955.63;;;27.50;44.72
48848;BME280;36611;51.638;5.784;2023-07-30T05:57:50;100961.31;;;27.49;44.57
48848;BME280;36611;51.638;5.784;2023-07-30T06:00:16;100955.81;;;27.49;44.80
48848;BME280;36611;51.638;5.784;2023-07-30T06:02:43;100954.78;;;27.50;44.71
48848;BME280;36611;51.638;5.784;2023-07-30T06:05:10;100955.81;;;27.49;44.65
48848;BME280;36611;51.638;5.784;2023-07-30T06:07:37;100963.22;;;27.48;44.62
48848;BME280;36611;51.638;5.784;2023-07-30T06:10:03;100964.09;;;27.49;44.39
48848;BME280;36611;51.638;5.784;2023-07-30T06:12:30;100959.63;;;27.48;44.67
48848;BME280;36611;51.638;5.784;2023-07-30T06:14:57;100960.47;;;27.48;44.61
48848;BME280;36611;51.638;5.784;2023-07-30T06:17:23;100964.09;;;27.49;44.39
48848;BME280;36611;51.638;5.784;2023-07-30T06:19:50;100960.47;;;27.48;44.55
48848;BME280;36611;51.638;5.784;2023-07-30T06:22:16;100958.78;;;27.47;44.39
48848;BME280;36611;51.638;5.784;2023-07-30T06:24:43;100960.47;;;27.48;44.63
48848;BME280;36611;51.638;5.784;2023-07-30T06:27:10;100964.09;;;27.49;44.50
48848;BME280;36611;51.638;5.784;2023-07-30T06:29:38;100965.16;;;27.48;44.58
48848;BME280;36611;51.638;5.784;2023-07-30T06:32:05;100965.16;;;27.48;44.49
48848;BME280;36611;51.638;5.784;2023-07-30T06:34:32;100967.06;;;27.47;44.31
48848;BME280;36611;51.638;5.784;2023-07-30T06:36:59;100966.00;;;27.48;44.39
48848;BME280;36611;51.638;5.784;2023-07-30T06:39:25;100969.81;;;27.47;44.37
48848;BME280;36611;51.638;5.784;2023-07-30T06:41:52;100969.81;;;27.47;44.73
48848;BME280;36611;51.638;5.784;2023-07-30T06:44:19;100964.28;;;27.47;44.62
48848;BME280;36611;51.638;5.784;2023-07-30T06:46:46;100971.72;;;27.47;44.50
48848;BME280;36611;51.638;5.784;2023-07-30T06:49:12;100970.88;;;27.46;44.39
48848;BME280;36611;51.638;5.784;2023-07-30T06:51:39;100961.75;;;27.46;44.49
48848;BME280;36611;51.638;5.784;2023-07-30T06:54:06;100964.50;;;27.46;44.77
48848;BME280;36611;51.638;5.784;2023-07-30T06:56:33;100964.50;;;27.46;44.37
48848;BME280;36611;51.638;5.784;2023-07-30T06:59:01;100968.13;;;27.46;44.45
48848;BME280;36611;51.638;5.784;2023-07-30T07:01:28;100975.53;;;27.46;44.39
48848;BME280;36611;51.638;5.784;2023-07-30T07:03:55;100972.78;;;27.46;44.53
48848;BME280;36611;51.638;5.784;2023-07-30T07:06:22;100970.88;;;27.46;44.39
48848;BME280;36611;51.638;5.784;2023-07-30T07:08:48;100979.16;;;27.46;44.41
48848;BME280;36611;51.638;5.784;2023-07-30T07:11:15;100978.31;;;27.46;44.35
48848;BME280;36611;51.638;5.784;2023-07-30T07:13:41;100970.03;;;27.46;44.41
48848;BME280;36611;51.638;5.784;2023-07-30T07:16:08;100964.50;;;27.46;44.23
48848;BME280;36611;51.638;5.784;2023-07-30T07:18:35;100970.88;;;27.46;44.32
48848;BME280;36611;51.638;5.784;2023-07-30T07:21:01;100967.28;;;27.46;44.33
48848;BME280;36611;51.638;5.784;2023-07-30T07:23:30;100966.22;;;27.47;44.29
48848;BME280;36611;51.638;5.784;2023-07-30T07:25:56;100973.63;;;27.46;44.52
48848;BME280;36611;51.638;5.784;2023-07-30T07:28:23;100970.03;;;27.46;44.35
48848;BME280;36611;51.638;5.784;2023-07-30T07:30:49;100971.94;;;27.45;44.46
48848;BME280;36611;51.638;5.784;2023-07-30T07:33:16;100980.22;;;27.45;44.54
48848;BME280;36611;51.638;5.784;2023-07-30T07:35:43;100982.97;;;27.45;44.75
48848;BME280;36611;51.638;5.784;2023-07-30T07:38:09;100980.22;;;27.45;44.41
48848;BME280;36611;51.638;5.784;2023-07-30T07:40:39;100979.16;;;27.46;44.34
48848;BME280;36611;51.638;5.784;2023-07-30T07:43:07;100975.53;;;27.46;44.44
48848;BME280;36611;51.638;5.784;2023-07-30T07:45:34;100980.22;;;27.45;44.36
48848;BME280;36611;51.638;5.784;2023-07-30T07:48:00;100985.94;;;27.44;44.23
48848;BME280;36611;51.638;5.784;2023-07-30T07:50:27;100991.47;;;27.44;44.58
48848;BME280;36611;51.638;5.784;2023-07-30T07:52:54;100979.59;;;27.43;44.38
48848;BME280;36611;51.638;5.784;2023-07-30T07:55:20;100993.38;;;27.43;44.23
48848;BME280;36611;51.638;5.784;2023-07-30T07:57:47;100983.41;;;27.42;44.30
48848;BME280;36611;51.638;5.784;2023-07-30T08:00:13;100976.19;;;27.41;44.36
48848;BME280;36611;51.638;5.784;2023-07-30T08:02:40;100978.94;;;27.41;44.57
48848;BME280;36611;51.638;5.784;2023-07-30T08:05:07;100979.81;;;27.42;44.47
48848;BME280;36611;51.638;5.784;2023-07-30T08:07:34;100984.47;;;27.41;44.69
48848;BME280;36611;51.638;5.784;2023-07-30T08:10:01;100986.38;;;27.41;44.37
48848;BME280;36611;51.638;5.784;2023-07-30T08:12:28;100992.97;;;27.40;44.40
48848;BME280;36611;51.638;5.784;2023-07-30T08:14:54;101001.03;;;27.41;44.38
48848;BME280;36611;51.638;5.784;2023-07-30T08:17:22;100995.72;;;27.40;44.33
48848;BME280;36611;51.638;5.784;2023-07-30T08:19:49;101001.22;;;27.40;44.35
48848;BME280;36611;51.638;5.784;2023-07-30T08:22:15;100997.63;;;27.39;44.33
48848;BME280;36611;51.638;5.784;2023-07-30T08:24:42;100992.13;;;27.39;44.33
48848;BME280;36611;51.638;5.784;2023-07-30T08:27:08;101001.44;;;27.38;44.39
48848;BME280;36611;51.638;5.784;2023-07-30T08:29:35;100996.78;;;27.39;44.21
48848;BME280;36611;51.638;5.784;2023-07-30T08:32:05;100996.78;;;27.39;44.19
48848;BME280;36611;51.638;5.784;2023-07-30T08:34:32;100996.78;;;27.39;44.40
48848;BME280;36611;51.638;5.784;2023-07-30T08:36:58;100992.34;;;27.38;44.48
48848;BME280;36611;51.638;5.784;2023-07-30T08:39:25;101001.66;;;27.37;44.33
48848;BME280;36611;51.638;5.784;2023-07-30T08:41:51;101004.22;;;27.38;44.12
48848;BME280;36611;51.638;5.784;2023-07-30T08:44:18;101006.13;;;27.38;44.29
48848;BME280;36611;51.638;5.784;2023-07-30T08:46:45;101006.13;;;27.38;44.43
48848;BME280;36611;51.638;5.784;2023-07-30T08:49:11;101003.38;;;27.38;44.43
48848;BME280;36611;51.638;5.784;2023-07-30T08:51:39;101003.38;;;27.38;44.32
48848;BME280;36611;51.638;5.784;2023-07-30T08:54:09;101007.19;;;27.37;44.34
48848;BME280;36611;51.638;5.784;2023-07-30T08:56:36;101007.19;;;27.37;44.24
48848;BME280;36611;51.638;5.784;2023-07-30T08:59:03;101007.19;;;27.37;44.43
48848;BME280;36611;51.638;5.784;2023-07-30T09:01:35;101016.31;;;27.37;44.43
48848;BME280;36611;51.638;5.784;2023-07-30T09:04:04;101011.84;;;27.36;44.36
48848;BME280;36611;51.638;5.784;2023-07-30T09:06:32;101015.47;;;27.37;44.38
48848;BME280;36611;51.638;5.784;2023-07-30T09:08:59;101016.53;;;27.36;44.31
48848;BME280;36611;51.638;5.784;2023-07-30T09:11:26;101016.53;;;27.36;44.42
48848;BME280;36611;51.638;5.784;2023-07-30T09:13:54;101012.69;;;27.37;44.30
48848;BME280;36611;51.638;5.784;2023-07-30T09:16:25;101016.53;;;27.36;44.26
48848;BME280;36611;51.638;5.784;2023-07-30T09:18:53;101015.47;;;27.37;44.26
48848;BME280;36611;51.638;5.784;2023-07-30T09:21:31;101018.22;;;27.37;44.27
48848;BME280;36611;51.638;5.784;2023-07-30T09:23:58;101023.72;;;27.37;44.45
48848;BME280;36611;51.638;5.784;2023-07-30T09:26:45;101019.06;;;27.37;44.31
48848;BME280;36611;51.638;5.784;2023-07-30T09:29:13;101015.66;;;27.35;44.32
48848;BME280;36611;51.638;5.784;2023-07-30T09:31:46;101018.44;;;27.35;44.52
48848;BME280;36611;51.638;5.784;2023-07-30T09:34:17;101021.19;;;27.35;44.32
48848;BME280;36611;51.638;5.784;2023-07-30T09:36:50;101020.34;;;27.35;44.54
48848;BME280;36611;51.638;5.784;2023-07-30T09:39:23;101033.06;;;27.36;44.56
48848;BME280;36611;51.638;5.784;2023-07-30T09:41:51;101027.56;;;27.36;44.29
48848;BME280;36611;51.638;5.784;2023-07-30T09:44:20;101016.53;;;27.36;44.33
48848;BME280;36611;51.638;5.784;2023-07-30T09:46:49;101028.41;;;27.36;44.32
48848;BME280;36611;51.638;5.784;2023-07-30T09:49:17;101018.44;;;27.35;44.31
48848;BME280;36611;51.638;5.784;2023-07-30T09:51:44;101022.88;;;27.36;44.28
48848;BME280;36611;51.638;5.784;2023-07-30T09:54:13;101027.34;;;27.37;44.36
48848;BME280;36611;51.638;5.784;2023-07-30T09:56:41;101015.47;;;27.37;44.32
48848;BME280;36611;51.638;5.784;2023-07-30T09:59:09;101019.91;;;27.38;44.39
48848;BME280;36611;51.638;5.784;2023-07-30T10:01:45;101014.41;;;27.38;44.09
48848;BME280;36611;51.638;5.784;2023-07-30T10:04:12;101013.53;;;27.37;44.59
48848;BME280;36611;51.638;5.784;2023-07-30T10:06:45;101015.25;;;27.38;44.23
48848;BME280;36611;51.638;5.784;2023-07-30T10:09:13;101019.06;;;27.37;44.32
48848;BME280;36611;51.638;5.784;2023-07-30T10:11:41;101020.75;;;27.38;44.66
48848;BME280;36611;51.638;5.784;2023-07-30T10:14:09;101027.34;;;27.37;44.26
48848;BME280;36611;51.638;5.784;2023-07-30T10:16:36;101020.97;;;27.37;44.24
48848;BME280;36611;51.638;5.784;2023-07-30T10:19:02;101012.69;;;27.37;44.66
48848;BME280;36611;51.638;5.784;2023-07-30T10:21:32;101020.97;;;27.37;44.25
48848;BME280;36611;51.638;5.784;2023-07-30T10:24:03;101029.25;;;27.37;44.12
48848;BME280;36611;51.638;5.784;2023-07-30T10:26:32;101046.66;;;27.37;44.19
48848;BME280;36611;51.638;5.784;2023-07-30T10:29:16;101051.31;;;27.37;44.44
48848;BME280;36611;51.638;5.784;2023-07-30T10:31:53;101070.63;;;27.37;44.31
48848;BME280;36611;51.638;5.784;2023-07-30T10:34:23;101081.03;;;27.35;44.26
48848;BME280;36611;51.638;5.784;2023-07-30T10:36:52;101078.25;;;27.35;44.25
48848;BME280;36611;51.638;5.784;2023-07-30T10:39:26;101065.31;;;27.35;44.14
48848;BME280;36611;51.638;5.784;2023-07-30T10:41:55;101065.53;;;27.34;44.19
48848;BME280;36611;51.638;5.784;2023-07-30T10:44:33;101071.91;;;27.34;44.14
48848;BME280;36611;51.638;5.784;2023-07-30T10:47:01;101061.94;;;27.33;44.06
48848;BME280;36611;51.638;5.784;2023-07-30T10:49:28;101072.09;;;27.33;44.21
48848;BME280;36611;51.638;5.784;2023-07-30T10:51:56;101072.97;;;27.33;44.21
48848;BME280;36611;51.638;5.784;2023-07-30T10:54:33;101077.63;;;27.33;44.06
48848;BME280;36611;51.638;5.784;2023-07-30T10:56:59;101081.22;;;27.33;44.32
48848;BME280;36611;51.638;5.784;2023-07-30T10:59:33;101074.03;;;27.32;44.26
48848;BME280;36611;51.638;5.784;2023-07-30T11:02:00;101078.69;;;27.32;44.13
48848;BME280;36611;51.638;5.784;2023-07-30T11:04:27;101076.78;;;27.32;43.95
48848;BME280;36611;51.638;5.784;2023-07-30T11:06:54;101078.47;;;27.33;44.10
48848;BME280;36611;51.638;5.784;2023-07-30T11:09:22;101080.38;;;27.33;43.89
48848;BME280;36611;51.638;5.784;2023-07-30T11:11:50;101078.47;;;27.33;44.09
48848;BME280;36611;51.638;5.784;2023-07-30T11:14:17;101084.00;;;27.33;44.26
48848;BME280;36611;51.638;5.784;2023-07-30T11:16:51;101080.38;;;27.33;44.16
48848;BME280;36611;51.638;5.784;2023-07-30T11:19:18;101078.47;;;27.33;44.41
48848;BME280;36611;51.638;5.784;2023-07-30T11:21:47;101083.13;;;27.33;44.21
48848;BME280;36611;51.638;5.784;2023-07-30T11:24:17;101083.13;;;27.33;44.17
48848;BME280;36611;51.638;5.784;2023-07-30T11:26:56;101076.56;;;27.34;44.03
48848;BME280;36611;51.638;5.784;2023-07-30T11:29:24;101061.06;;;27.33;43.94
48848;BME280;36611;51.638;5.784;2023-07-30T11:31:51;101072.09;;;27.33;44.26
48848;BME280;36611;51.638;5.784;2023-07-30T11:34:18;101063.00;;;27.32;44.15
48848;BME280;36611;51.638;5.784;2023-07-30T11:36:45;101069.34;;;27.33;44.21
48848;BME280;36611;51.638;5.784;2023-07-30T11:39:12;101062.78;;;27.34;44.20
48848;BME280;36611;51.638;5.784;2023-07-30T11:41:39;101073.81;;;27.34;44.02
48848;BME280;36611;51.638;5.784;2023-07-30T11:44:06;101071.91;;;27.34;43.96
48848;BME280;36611;51.638;5.784;2023-07-30T11:46:32;101077.41;;;27.34;43.81
48848;BME280;36611;51.638;5.784;2023-07-30T11:49:13;101078.25;;;27.35;43.79
48848;BME280;36611;51.638;5.784;2023-07-30T11:51:41;101086.53;;;27.35;44.16
48848;BME280;36611;51.638;5.784;2023-07-30T11:54:18;101093.75;;;27.36;44.04
48848;BME280;36611;51.638;5.784;2023-07-30T11:56:45;101081.03;;;27.35;44.15
48848;BME280;36611;51.638;5.784;2023-07-30T11:59:12;101093.75;;;27.36;44.24
48848;BME280;36611;51.638;5.784;2023-07-30T12:01:42;101091.84;;;27.36;44.02
48848;BME280;36611;51.638;5.784;2023-07-30T12:04:08;101097.34;;;27.36;44.03
48848;BME280;36611;51.638;5.784;2023-07-30T12:06:46;101095.44;;;27.37;44.09
48848;BME280;36611;51.638;5.784;2023-07-30T12:09:14;101104.56;;;27.37;43.86
48848;BME280;36611;51.638;5.784;2023-07-30T12:11:49;101098.00;;;27.38;44.02
48848;BME280;36611;51.638;5.784;2023-07-30T12:14:16;101103.72;;;27.37;44.01
48848;BME280;36611;51.638;5.784;2023-07-30T12:16:43;101102.66;;;27.38;43.92
48848;BME280;36611;51.638;5.784;2023-07-30T12:19:10;101103.50;;;27.38;44.23
48848;BME280;36611;51.638;5.784;2023-07-30T12:21:36;101098.00;;;27.38;43.98
48848;BME280;36611;51.638;5.784;2023-07-30T12:24:05;101092.47;;;27.38;44.09
48848;BME280;36611;51.638;5.784;2023-07-30T12:26:32;101096.94;;;27.39;43.71
48848;BME280;36611;51.638;5.784;2023-07-30T12:28:58;101096.06;;;27.39;43.94
48848;BME280;36611;51.638;5.784;2023-07-30T12:31:25;101081.22;;;27.40;44.00
48848;BME280;36611;51.638;5.784;2023-07-30T12:33:52;101092.25;;;27.40;44.47
48848;BME280;36611;51.638;5.784;2023-07-30T12:36:18;101091.19;;;27.41;44.11
48848;BME280;36611;51.638;5.784;2023-07-30T12:38:45;101100.53;;;27.40;43.89
48848;BME280;36611;51.638;5.784;2023-07-30T12:41:12;101103.28;;;27.40;43.96
48848;BME280;36611;51.638;5.784;2023-07-30T12:43:39;101094.81;;;27.41;44.04
48848;BME280;36611;51.638;5.784;2023-07-30T12:46:06;101096.72;;;27.41;43.99
48848;BME280;36611;51.638;5.784;2023-07-30T12:48:32;101096.72;;;27.41;43.93
48848;BME280;36611;51.638;5.784;2023-07-30T12:50:59;101093.97;;;27.41;44.02
48848;BME280;36611;51.638;5.784;2023-07-30T12:53:26;101101.16;;;27.42;43.63